Time;durP1;ratioP1;P1;durP2;ratioP2;P2;SDS_P1;SDS_P2;PMS_P1;PMS_P2;Temp;Humidity;BMP_temperature;BMP_pressure;BME280_temperature;BME280_humidity;BME280_pressure;Samples;Min_cycle;Max_cycle;Signal;HPM_P1;HPM_P2
2023/08/30 00:00:51;;;;;;;62.53;38.38;;;11.50;99.90;;;;;;6292629;22;20091;-90
2023/08/30 00:03:52;;;;;;;53.13;38.50;;;11.50;99.90;;;;;;6270391;22;20026;-88
2023/08/30 00:06:41;;;;;;;62.42;40.55;;;11.40;99.90;;;;;;6300246;22;20007;-89
2023/08/30 00:09:28;;;;;;;67.00;42.38;;;11.50;99.90;;;;;;6280598;22;20015;-94
2023/08/30 00:12:16;;;;;;;63.47;42.45;;;11.50;99.90;;;;;;6273239;22;20023;-92
2023/08/30 00:15:09;;;;;;;66.13;42.28;;;11.60;99.90;;;;;;6273923;22;20329;-92
2023/08/30 00:17:56;;;;;;;65.70;42.95;;;11.60;99.90;;;;;;6274141;22;20023;-91
2023/08/30 00:20:43;;;;;;;68.22;42.10;;;11.60;99.90;;;;;;6263419;22;20413;-93
2023/08/30 00:23:31;;;;;;;68.65;43.70;;;11.60;99.90;;;;;;6264605;22;20019;-92
2023/08/30 00:26:25;;;;;;;67.43;43.83;;;11.60;99.90;;;;;;6268588;22;20043;-93
2023/08/30 00:29:23;;;;;;;66.10;44.70;;;11.70;99.90;;;;;;6261413;22;20037;-92
2023/08/30 00:32:11;;;;;;;68.20;45.30;;;11.70;99.90;;;;;;6257989;22;20103;-91
2023/08/30 00:34:58;;;;;;;67.63;44.72;;;11.70;99.90;;;;;;6255685;22;20019;-92
2023/08/30 00:37:46;;;;;;;62.20;43.28;;;11.60;99.90;;;;;;6258095;22;20024;-93
2023/08/30 00:40:40;;;;;;;79.80;46.25;;;11.60;99.90;;;;;;6263480;22;20118;-92
2023/08/30 00:43:30;;;;;;;73.65;46.72;;;11.60;99.90;;;;;;6291531;22;20020;-93
2023/08/30 00:46:36;;;;;;;68.63;45.00;;;11.60;99.90;;;;;;6284615;22;20023;-92
2023/08/30 00:49:33;;;;;;;70.93;46.28;;;11.60;99.90;;;;;;6276690;22;20410;-91
2023/08/30 00:52:21;;;;;;;71.57;44.88;;;11.60;99.90;;;;;;6259632;22;20026;-93
2023/08/30 00:55:09;;;;;;;75.35;47.72;;;11.60;99.90;;;;;;6259814;22;20024;-92
2023/08/30 00:58:01;;;;;;;72.72;46.50;;;11.60;99.90;;;;;;6259795;22;20086;-93
2023/08/30 01:00:50;;;;;;;69.38;47.00;;;11.60;99.90;;;;;;6281689;22;20422;-92
2023/08/30 01:03:39;;;;;;;71.85;48.35;;;11.70;99.90;;;;;;6260063;22;20329;-92
2023/08/30 01:06:41;;;;;;;73.82;49.63;;;11.70;99.90;;;;;;6280115;22;20071;-91
2023/08/30 01:09:33;;;;;;;76.00;50.45;;;11.70;99.90;;;;;;6280527;22;20047;-93
2023/08/30 01:12:38;;;;;;;79.53;50.63;;;11.70;99.90;;;;;;6282867;22;20024;-90
2023/08/30 01:15:27;;;;;;;79.50;50.33;;;11.70;99.90;;;;;;6261547;22;20419;-93
2023/08/30 01:18:19;;;;;;;80.40;51.22;;;11.70;99.90;;;;;;6257815;22;20043;-92
2023/08/30 01:21:29;;;;;;;78.38;49.30;;;11.70;99.90;;;;;;6261447;22;20019;-93
2023/08/30 01:24:37;;;;;;;82.15;49.15;;;11.60;99.90;;;;;;6260223;22;20324;-92
2023/08/30 01:27:25;;;;;;;85.63;51.28;;;11.70;99.90;;;;;;6259214;22;20354;-91
2023/08/30 01:30:14;;;;;;;86.90;50.42;;;11.60;99.90;;;;;;6261678;22;20223;-91
2023/08/30 01:33:04;;;;;;;81.03;51.30;;;11.60;99.90;;;;;;6281318;22;20110;-92
2023/08/30 01:35:58;;;;;;;78.75;50.22;;;11.60;99.90;;;;;;6259028;22;20100;-91
2023/08/30 01:38:49;;;;;;;76.70;48.10;;;11.60;99.90;;;;;;6260789;22;20322;-90
2023/08/30 01:41:41;;;;;;;77.88;47.95;;;11.50;99.90;;;;;;6284254;22;20032;-91
2023/08/30 01:44:30;;;;;;;76.43;48.10;;;11.50;99.90;;;;;;6260090;22;20034;-92
2023/08/30 01:47:18;;;;;;;79.20;48.70;;;11.50;99.90;;;;;;6259083;22;20081;-91
2023/08/30 01:50:07;;;;;;;75.72;46.80;;;11.40;99.90;;;;;;6258943;22;20035;-91
2023/08/30 01:57:24;;;;;;;74.70;47.72;;;11.40;99.90;;;;;;6282641;22;20020;-90
2023/08/30 02:00:21;;;;;;;75.80;47.63;;;11.30;99.90;;;;;;6282003;22;20130;-92
2023/08/30 02:03:10;;;;;;;81.10;47.72;;;11.30;99.90;;;;;;6262614;22;20028;-92
2023/08/30 02:06:06;;;;;;;75.95;46.90;;;11.30;99.90;;;;;;6259777;22;20098;-93
2023/08/30 02:09:17;;;;;;;84.75;50.13;;;11.30;99.90;;;;;;6259099;22;20020;-93
2023/08/30 02:12:34;;;;;;;79.60;47.70;;;11.30;99.90;;;;;;6283225;22;20030;-91
2023/08/30 02:15:25;;;;;;;77.35;47.35;;;11.30;99.90;;;;;;6252081;22;20039;-92
2023/08/30 02:18:16;;;;;;;85.55;48.55;;;11.20;99.90;;;;;;6261758;22;20047;-93
2023/08/30 02:21:07;;;;;;;78.30;47.75;;;11.20;99.90;;;;;;6262640;22;20019;-94
2023/08/30 02:23:54;;;;;;;82.28;49.30;;;11.20;99.90;;;;;;6263755;22;20024;-92
2023/08/30 02:26:42;;;;;;;75.70;45.95;;;11.20;99.90;;;;;;6274171;22;20108;-94
2023/08/30 02:29:30;;;;;;;82.45;49.40;;;11.20;99.90;;;;;;6296243;22;20019;-93
2023/08/30 02:32:20;;;;;;;77.78;46.58;;;11.20;99.90;;;;;;6279572;22;20031;-90
2023/08/30 02:37:47;;;;;;;76.57;45.83;;;11.10;99.90;;;;;;6289252;22;20023;-93
2023/08/30 02:44:37;;;;;;;75.82;44.92;;;11.00;99.90;;;;;;6296554;22;20011;-93
2023/08/30 02:47:25;;;;;;;75.90;46.17;;;11.00;99.90;;;;;;6260615;22;20099;-92
2023/08/30 02:50:13;;;;;;;77.53;45.35;;;10.90;99.90;;;;;;6258956;22;20026;-91
2023/08/30 02:53:03;;;;;;;76.97;46.40;;;10.90;99.90;;;;;;6280888;22;20035;-93
2023/08/30 02:55:51;;;;;;;76.53;45.15;;;10.80;99.90;;;;;;6284027;22;20023;-93
2023/08/30 02:58:41;;;;;;;79.57;46.83;;;10.80;99.90;;;;;;6257170;22;20098;-91
2023/08/30 03:01:29;;;;;;;88.75;47.08;;;10.80;99.90;;;;;;6263828;22;20030;-92
2023/08/30 03:04:16;;;;;;;81.00;46.67;;;10.80;99.90;;;;;;6262809;22;20423;-93
2023/08/30 03:07:06;;;;;;;85.35;45.78;;;10.90;99.90;;;;;;6261134;22;20020;-93
2023/08/30 03:09:55;;;;;;;83.28;46.08;;;10.80;99.90;;;;;;6239120;22;20020;-92
2023/08/30 03:12:42;;;;;;;81.40;46.92;;;10.80;99.90;;;;;;6259962;22;20331;-93
2023/08/30 03:16:03;;;;;;;69.22;41.10;;;10.70;99.90;;;;;;6260685;22;20674;-93
2023/08/30 03:18:51;;;;;;;75.38;42.60;;;10.70;99.90;;;;;;6258180;22;20024;-93
2023/08/30 03:21:38;;;;;;;70.03;41.92;;;10.60;99.90;;;;;;6259699;22;20024;-93
2023/08/30 03:24:29;;;;;;;69.90;41.78;;;10.60;99.90;;;;;;6258069;22;20027;-93
2023/08/30 03:27:16;;;;;;;67.88;40.05;;;10.60;99.90;;;;;;6257708;22;20023;-93
2023/08/30 03:30:06;;;;;;;72.05;42.05;;;10.60;99.90;;;;;;6258731;22;20323;-92
2023/08/30 03:32:53;;;;;;;74.55;42.38;;;10.60;99.90;;;;;;6259712;22;20098;-93
2023/08/30 03:35:41;;;;;;;77.35;43.25;;;10.60;99.90;;;;;;6279155;22;20119;-92
2023/08/30 03:38:29;;;;;;;72.82;41.65;;;10.60;99.90;;;;;;6284473;22;20513;-92
2023/08/30 03:41:18;;;;;;;72.82;42.63;;;10.50;99.90;;;;;;6256657;22;20283;-92
2023/08/30 03:44:05;;;;;;;75.70;42.97;;;10.50;99.90;;;;;;6261993;22;20080;-91
2023/08/30 03:46:59;;;;;;;64.50;39.67;;;10.50;99.90;;;;;;6289650;22;20058;-89
2023/08/30 03:49:51;;;;;;;75.97;42.58;;;10.40;99.90;;;;;;6287729;22;20019;-93
2023/08/30 03:52:40;;;;;;;85.90;44.45;;;10.40;99.90;;;;;;6242825;22;20024;-94
2023/08/30 03:55:27;;;;;;;83.05;44.03;;;10.50;99.90;;;;;;6259283;22;20023;-93
2023/08/30 03:58:16;;;;;;;83.72;42.35;;;10.50;99.90;;;;;;6279993;22;20410;-93
2023/08/30 04:01:29;;;;;;;86.32;43.70;;;10.50;99.90;;;;;;6281905;22;20031;-94
2023/08/30 04:04:30;;;;;;;132.15;48.03;;;10.50;99.90;;;;;;6236256;22;20024;-93
2023/08/30 04:07:17;;;;;;;84.82;46.65;;;10.50;99.90;;;;;;6280193;22;20023;-94
2023/08/30 04:10:08;;;;;;;86.90;49.05;;;10.50;99.90;;;;;;6260349;22;20023;-93
2023/08/30 04:12:56;;;;;;;91.28;48.53;;;10.50;99.90;;;;;;6281448;22;20379;-93
2023/08/30 04:15:44;;;;;;;90.03;48.78;;;10.50;99.90;;;;;;6279391;22;20175;-93
2023/08/30 04:18:31;;;;;;;91.43;49.28;;;10.60;99.90;;;;;;6242362;22;20415;-93
2023/08/30 04:21:25;;;;;;;81.30;46.38;;;10.60;99.90;;;;;;6257743;22;20070;-94
2023/08/30 04:24:18;;;;;;;84.43;47.78;;;10.60;99.90;;;;;;6264324;22;20028;-92
2023/08/30 04:27:06;;;;;;;98.28;51.13;;;10.70;99.90;;;;;;6259549;22;20020;-94
2023/08/30 04:29:58;;;;;;;92.85;49.67;;;10.70;99.90;;;;;;6260598;22;20031;-94
2023/08/30 04:32:46;;;;;;;93.43;49.88;;;10.70;99.90;;;;;;6292672;22;20058;-93
2023/08/30 04:35:33;;;;;;;92.85;49.55;;;10.70;99.90;;;;;;6291746;22;20032;-92
2023/08/30 04:38:38;;;;;;;;;;;;;;;;;;;;;
2023/08/30 04:46:02;;;;;;;100.75;49.92;;;10.70;99.90;;;;;;6275032;22;20085;-91
2023/08/30 04:48:58;;;;;;;96.43;49.58;;;10.70;99.90;;;;;;6268264;22;20164;-94
2023/08/30 04:51:54;;;;;;;100.85;49.45;;;10.70;99.90;;;;;;6264897;22;20038;-93
2023/08/30 04:54:45;;;;;;;103.55;50.25;;;10.70;99.90;;;;;;6280563;22;20023;-91
2023/08/30 04:57:32;;;;;;;96.30;49.55;;;10.80;99.90;;;;;;6262966;22;20034;-92
2023/08/30 05:00:20;;;;;;;110.50;51.17;;;10.80;99.90;;;;;;6265019;22;20019;-95
2023/08/30 05:03:07;;;;;;;104.13;50.53;;;10.80;99.90;;;;;;6281215;22;20035;-93
2023/08/30 05:05:58;;;;;;;100.30;52.05;;;10.80;99.90;;;;;;6283360;22;20023;-94
2023/08/30 05:08:49;;;;;;;101.78;50.65;;;10.80;99.90;;;;;;6263324;22;20102;-94
2023/08/30 05:11:37;;;;;;;98.95;50.88;;;10.80;99.90;;;;;;6260066;22;20430;-92
2023/08/30 05:14:24;;;;;;;105.15;51.20;;;10.80;99.90;;;;;;6262245;22;20035;-92
2023/08/30 05:17:11;;;;;;;92.55;48.05;;;10.80;99.90;;;;;;6260231;22;20038;-93
2023/08/30 05:19:58;;;;;;;94.18;49.00;;;10.80;99.90;;;;;;6262175;22;20027;-93
2023/08/30 05:22:46;;;;;;;98.38;48.67;;;10.90;99.90;;;;;;6259966;22;20023;-90
2023/08/30 05:25:33;;;;;;;98.53;50.42;;;10.90;99.90;;;;;;6282782;22;20062;-92
2023/08/30 05:28:23;;;;;;;93.22;48.30;;;10.90;99.90;;;;;;6261774;22;20023;-91
2023/08/30 05:31:10;;;;;;;91.60;47.92;;;10.90;99.90;;;;;;6260402;22;20049;-91
2023/08/30 05:33:57;;;;;;;96.13;49.20;;;10.90;99.90;;;;;;6258955;22;20027;-91
2023/08/30 05:36:45;;;;;;;92.60;48.72;;;11.00;99.90;;;;;;6258529;22;20019;-92
2023/08/30 05:39:32;;;;;;;90.75;48.92;;;11.00;99.90;;;;;;6259027;22;20020;-92
2023/08/30 05:42:20;;;;;;;90.47;49.55;;;11.00;99.90;;;;;;6259213;22;20020;-91
2023/08/30 05:45:07;;;;;;;80.22;46.88;;;11.00;99.90;;;;;;6258909;22;20027;-90
2023/08/30 05:47:54;;;;;;;83.68;47.00;;;11.10;99.90;;;;;;6281905;22;20042;-93
2023/08/30 05:50:42;;;;;;;91.20;49.70;;;11.10;99.90;;;;;;6279353;22;20099;-93
2023/08/30 05:53:29;;;;;;;87.63;49.33;;;11.20;99.90;;;;;;6260124;22;20038;-91
2023/08/30 05:56:17;;;;;;;87.80;47.00;;;11.30;99.90;;;;;;6259590;22;20030;-93
2023/08/30 05:59:06;;;;;;;101.32;54.10;;;11.30;99.90;;;;;;6259066;22;20023;-92
2023/08/30 06:01:54;;;;;;;92.57;49.15;;;11.30;99.90;;;;;;6256805;22;20049;-92
2023/08/30 06:04:42;;;;;;;86.50;46.72;;;11.40;99.90;;;;;;6258888;22;20024;-92
2023/08/30 06:07:33;;;;;;;77.95;45.03;;;11.40;99.90;;;;;;6281750;22;20411;-92
2023/08/30 06:10:21;;;;;;;81.07;45.53;;;11.40;99.90;;;;;;6239639;22;20034;-91
2023/08/30 06:13:10;;;;;;;77.90;43.58;;;11.40;99.90;;;;;;6280150;22;20039;-91
2023/08/30 06:15:59;;;;;;;76.57;44.50;;;11.50;99.90;;;;;;6278420;22;20034;-93
2023/08/30 06:18:53;;;;;;;79.78;43.95;;;11.50;99.90;;;;;;6259463;22;20027;-93
2023/08/30 06:21:42;;;;;;;72.70;42.53;;;11.40;99.90;;;;;;6281158;22;20311;-90
2023/08/30 06:24:29;;;;;;;73.57;43.58;;;11.40;99.90;;;;;;6257519;22;20054;-92
2023/08/30 06:27:20;;;;;;;73.20;41.20;;;11.50;99.90;;;;;;6284710;22;20055;-92
2023/08/30 06:30:11;;;;;;;67.13;40.28;;;11.40;99.90;;;;;;6267336;22;20016;-91
2023/08/30 06:32:58;;;;;;;65.32;40.50;;;11.40;99.90;;;;;;6261768;22;20039;-93
2023/08/30 06:35:49;;;;;;;63.35;38.17;;;11.40;99.90;;;;;;6284158;22;20284;-93
2023/08/30 06:38:36;;;;;;;59.85;38.35;;;11.50;99.90;;;;;;6260642;22;20031;-92
2023/08/30 06:41:23;;;;;;;52.17;35.15;;;11.50;99.90;;;;;;6260241;22;20419;-94
2023/08/30 06:44:10;;;;;;;55.22;35.72;;;11.50;99.90;;;;;;6281886;22;20075;-91
2023/08/30 06:46:58;;;;;;;49.63;33.42;;;11.50;99.90;;;;;;6260663;22;20019;-93
2023/08/30 06:49:48;;;;;;;46.80;32.35;;;11.60;99.90;;;;;;6285453;22;20023;-91
2023/08/30 06:52:36;;;;;;;51.13;34.55;;;11.60;99.90;;;;;;6287603;22;20024;-91
2023/08/30 06:55:23;;;;;;;42.15;31.15;;;11.70;99.90;;;;;;6263369;22;20027;-91
2023/08/30 06:58:10;;;;;;;41.70;31.08;;;11.70;99.90;;;;;;6283180;22;20035;-91
2023/08/30 07:00:58;;;;;;;35.33;27.70;;;11.70;99.90;;;;;;6258918;22;20027;-92
2023/08/30 07:03:45;;;;;;;32.78;26.77;;;11.80;99.90;;;;;;6257785;22;20561;-91
2023/08/30 07:06:36;;;;;;;33.80;26.20;;;11.80;99.90;;;;;;6259713;22;20020;-91
2023/08/30 07:09:28;;;;;;;35.05;24.58;;;11.90;99.90;;;;;;6258119;22;20030;-92
2023/08/30 07:12:16;;;;;;;27.90;23.10;;;12.00;99.90;;;;;;6278731;22;20027;-89
2023/08/30 07:15:04;;;;;;;23.67;20.65;;;12.10;99.90;;;;;;6278157;22;20023;-92
2023/08/30 07:17:54;;;;;;;22.20;19.80;;;12.20;99.90;;;;;;6259454;22;20038;-91
2023/08/30 07:20:44;;;;;;;20.45;17.85;;;12.20;99.90;;;;;;6259477;22;20034;-91
2023/08/30 07:23:32;;;;;;;23.50;19.02;;;12.20;99.90;;;;;;6257684;22;20019;-91
2023/08/30 07:26:19;;;;;;;21.70;17.90;;;12.40;99.90;;;;;;6281075;22;20020;-92
2023/08/30 07:29:06;;;;;;;18.85;16.08;;;12.40;99.90;;;;;;6278464;22;20070;-91
2023/08/30 07:31:54;;;;;;;16.58;14.80;;;12.50;99.90;;;;;;6279724;22;20032;-89
2023/08/30 07:34:41;;;;;;;15.93;14.23;;;12.50;99.90;;;;;;6256816;22;20047;-91
2023/08/30 07:37:30;;;;;;;17.33;14.43;;;12.50;99.90;;;;;;6281058;22;20028;-92
2023/08/30 07:40:18;;;;;;;19.33;14.30;;;12.50;99.90;;;;;;6280742;22;20103;-92
2023/08/30 07:43:05;;;;;;;15.75;14.00;;;12.60;99.90;;;;;;6282997;22;20023;-90
2023/08/30 07:45:56;;;;;;;19.20;14.90;;;12.60;99.90;;;;;;6258980;22;20042;-92
2023/08/30 07:48:46;;;;;;;17.17;15.38;;;12.60;99.90;;;;;;6279188;22;20020;-92
2023/08/30 07:51:33;;;;;;;16.08;13.88;;;12.70;99.90;;;;;;6259521;22;20027;-91
2023/08/30 07:54:20;;;;;;;16.67;14.82;;;12.80;99.90;;;;;;6257475;22;20458;-89
2023/08/30 07:57:10;;;;;;;15.93;13.90;;;12.90;99.90;;;;;;6279146;22;20335;-90
2023/08/30 07:59:58;;;;;;;15.40;13.18;;;12.90;99.90;;;;;;6279884;22;20077;-90
2023/08/30 08:02:46;;;;;;;15.18;12.60;;;13.10;99.90;;;;;;6256747;22;20023;-90
2023/08/30 08:05:36;;;;;;;15.73;13.00;;;13.10;99.90;;;;;;6257493;22;20028;-90
2023/08/30 08:08:23;;;;;;;14.90;13.40;;;13.20;99.90;;;;;;6259006;22;20027;-90
2023/08/30 08:11:10;;;;;;;15.68;13.43;;;13.30;99.90;;;;;;6282324;22;20121;-90
2023/08/30 08:14:00;;;;;;;15.27;12.25;;;13.30;99.90;;;;;;6283011;22;20047;-89
2023/08/30 08:16:50;;;;;;;11.43;10.30;;;13.60;99.90;;;;;;6271085;22;20020;-89
2023/08/30 08:19:39;;;;;;;12.63;11.43;;;13.80;99.90;;;;;;6294260;22;20054;-90
2023/08/30 08:22:26;;;;;;;11.10;9.98;;;14.10;99.90;;;;;;6293672;22;20020;-89
2023/08/30 08:25:14;;;;;;;20.05;9.95;;;14.20;99.90;;;;;;6278080;22;20076;-88
2023/08/30 08:28:03;;;;;;;10.93;9.80;;;14.30;99.90;;;;;;6279046;22;20012;-89
2023/08/30 08:30:51;;;;;;;12.45;9.40;;;14.40;99.90;;;;;;6302613;22;20011;-88
2023/08/30 08:33:38;;;;;;;12.20;9.30;;;14.50;99.90;;;;;;6300864;22;20008;-88
2023/08/30 08:36:26;;;;;;;10.38;8.88;;;14.70;99.90;;;;;;6301936;22;20031;-90
2023/08/30 08:39:14;;;;;;;11.00;9.10;;;14.70;99.90;;;;;;6270067;22;20035;-90
2023/08/30 08:42:05;;;;;;;11.27;10.18;;;14.70;99.90;;;;;;6238585;22;20051;-89
2023/08/30 08:44:54;;;;;;;10.80;9.65;;;14.70;99.90;;;;;;6279024;22;20031;-87
2023/08/30 08:47:42;;;;;;;13.38;9.70;;;14.70;99.10;;;;;;6278825;22;20026;-90
2023/08/30 08:50:30;;;;;;;11.90;10.00;;;14.70;99.90;;;;;;6276440;22;20300;-88
2023/08/30 08:53:18;;;;;;;10.93;9.13;;;15.00;27.90;;;;;;6257015;22;20028;-89
2023/08/30 08:56:09;;;;;;;9.55;8.05;;;15.30;1.00;;;;;;6254914;22;20303;-90
2023/08/30 08:58:57;;;;;;;9.40;8.50;;;15.70;99.90;;;;;;6279488;22;20024;-88
2023/08/30 09:01:44;;;;;;;11.38;8.18;;;16.00;1.00;;;;;;6279793;22;20043;-91
2023/08/30 09:04:32;;;;;;;9.15;7.30;;;16.10;1.00;;;;;;6280576;22;20024;-90
2023/08/30 09:07:19;;;;;;;7.20;6.50;;;16.60;99.90;;;;;;6256135;22;20023;-88
2023/08/30 09:10:07;;;;;;;6.18;5.57;;;16.70;99.90;;;;;;6257237;22;20631;-90
2023/08/30 09:12:57;;;;;;;6.30;5.68;;;16.60;99.90;;;;;;6257203;22;20027;-90
2023/08/30 09:15:44;;;;;;;6.88;5.18;;;16.70;1.00;;;;;;6277269;22;20038;-91
2023/08/30 09:18:32;;;;;;;8.77;5.07;;;17.00;99.90;;;;;;6279117;22;20069;-91
2023/08/30 09:21:19;;;;;;;5.60;5.10;;;17.70;99.90;;;;;;6254599;22;20117;-89
2023/08/30 09:24:07;;;;;;;6.35;4.68;;;18.00;22.90;;;;;;6258134;22;20024;-90
2023/08/30 09:26:54;;;;;;;5.30;4.80;;;18.40;1.00;;;;;;6256900;22;20031;-89
2023/08/30 09:29:44;;;;;;;5.57;5.07;;;18.90;1.00;;;;;;6262757;22;20043;-90
2023/08/30 09:32:39;;;;;;;5.70;4.47;;;19.40;99.90;;;;;;6280225;22;20039;-90
2023/08/30 09:35:26;;;;;;;7.05;4.45;;;19.80;99.90;;;;;;6279165;22;20101;-91
2023/08/30 09:38:19;;;;;;;5.95;4.55;;;19.40;99.90;;;;;;6258257;22;20028;-91
2023/08/30 09:41:06;;;;;;;4.80;4.15;;;19.30;99.90;;;;;;6259249;22;20102;-88
2023/08/30 09:43:54;;;;;;;8.07;4.22;;;18.70;99.90;;;;;;6278692;22;20028;-89
2023/08/30 09:47:02;;;;;;;4.50;4.10;;;18.90;99.90;;;;;;6245286;22;20101;-88
2023/08/30 09:49:54;;;;;;;4.78;3.90;;;19.40;71.40;;;;;;6279650;22;20024;-90
2023/08/30 09:52:42;;;;;;;;;;;19.60;29.90;;;;;;6281140;22;20058;-89
2023/08/30 09:55:30;;;;;;;5.45;3.90;;;19.60;15.10;;;;;;6255706;22;19915;-89
2023/08/30 09:58:18;;;;;;;4.03;3.60;;;20.00;9.10;;;;;;6282270;22;20039;-89
2023/08/30 10:01:08;;;;;;;4.82;3.75;;;20.20;1.00;;;;;;6280024;22;20027;-89
2023/08/30 10:03:57;;;;;;;4.28;2.22;;;20.40;1.00;;;;;;6259762;22;20020;-90
2023/08/30 10:06:46;;;;;;;5.22;3.15;;;20.60;1.00;;;;;;6255715;22;20035;-90
2023/08/30 10:09:36;;;;;;;12.70;3.33;;;20.60;1.00;;;;;;6257116;22;20301;-91
2023/08/30 10:12:25;;;;;;;3.78;2.97;;;20.60;1.00;;;;;;6281084;22;20595;-90
2023/08/30 10:15:16;;;;;;;4.35;3.20;;;20.70;1.00;;;;;;6255515;22;20042;-88
2023/08/30 10:18:04;;;;;;;3.55;2.38;;;20.80;1.00;;;;;;6277931;22;20028;-90
2023/08/30 10:20:55;;;;;;;3.97;2.58;;;21.10;1.00;;;;;;6276372;22;20023;-88
2023/08/30 10:23:43;;;;;;;3.17;2.65;;;21.00;99.90;;;;;;6256928;22;20050;-89
2023/08/30 10:26:32;;;;;;;2.47;2.28;;;20.70;99.90;;;;;;6256968;22;20031;-89
2023/08/30 10:29:20;;;;;;;2.88;2.35;;;20.50;99.90;;;;;;6278503;22;20020;-88
2023/08/30 10:32:08;;;;;;;4.68;2.72;;;20.90;99.90;;;;;;6257384;22;20030;-89
2023/08/30 10:34:55;;;;;;;4.95;2.85;;;20.70;99.90;;;;;;6278814;22;20312;-90
2023/08/30 10:37:53;;;;;;;4.20;2.88;;;20.50;99.90;;;;;;6256489;22;20039;-90
2023/08/30 10:40:47;;;;;;;3.65;2.50;;;20.70;99.90;;;;;;6255814;22;20114;-91
2023/08/30 10:43:37;;;;;;;4.32;3.00;;;21.60;99.90;;;;;;6256811;22;20035;-92
2023/08/30 10:46:32;;;;;;;3.70;3.40;;;21.60;99.90;;;;;;6256037;22;20090;-91
2023/08/30 10:49:20;;;;;;;4.20;2.72;;;21.40;99.90;;;;;;6279847;22;20315;-91
2023/08/30 10:52:15;;;;;;;4.85;2.70;;;21.20;99.90;;;;;;6257437;22;20024;-89
2023/08/30 10:55:15;;;;;;;2.83;2.50;;;21.50;99.90;;;;;;6258056;22;20035;-90
2023/08/30 10:58:06;;;;;;;3.22;2.60;;;21.40;99.90;;;;;;6278819;22;20422;-91
2023/08/30 11:00:54;;;;;;;3.10;2.80;;;21.40;99.90;;;;;;6277772;22;20030;-89
2023/08/30 11:03:42;;;;;;;2.97;2.45;;;20.70;99.90;;;;;;6257296;22;20030;-90
2023/08/30 11:06:29;;;;;;;3.00;2.70;;;21.50;99.90;;;;;;6258963;22;20019;-87
2023/08/30 11:09:19;;;;;;;6.38;2.08;;;22.30;99.90;;;;;;6281202;22;20114;-89
2023/08/30 11:12:06;;;;;;;2.67;2.10;;;23.20;99.90;;;;;;6280335;22;20024;-90
2023/08/30 11:14:57;;;;;;;4.03;2.42;;;23.50;99.90;;;;;;6278989;22;20048;-89
2023/08/30 11:17:45;;;;;;;2.70;2.50;;;22.90;99.90;;;;;;6257506;22;20034;-88
2023/08/30 11:20:32;;;;;;;3.85;2.40;;;21.80;99.90;;;;;;6256285;22;20493;-88
2023/08/30 11:23:19;;;;;;;2.45;2.25;;;22.00;99.90;;;;;;6254254;22;20051;-91
2023/08/30 11:26:07;;;;;;;4.05;2.40;;;22.10;99.90;;;;;;6258543;22;20032;-90
2023/08/30 11:28:54;;;;;;;3.03;2.28;;;21.70;99.90;;;;;;6258118;22;20035;-89
2023/08/30 11:31:45;;;;;;;4.15;2.58;;;21.90;99.90;;;;;;6278353;22;20055;-88
2023/08/30 11:34:33;;;;;;;3.67;2.88;;;21.40;99.90;;;;;;6277853;22;20605;-89
2023/08/30 11:37:20;;;;;;;6.88;3.38;;;21.00;99.90;;;;;;6257338;22;20034;-89
2023/08/30 11:40:14;;;;;;;3.53;3.00;;;20.50;99.90;;;;;;6256154;22;20035;-88
2023/08/30 11:43:04;;;;;;;2.55;1.95;;;19.70;99.90;;;;;;6257589;22;20039;-90
2023/08/30 11:45:56;;;;;;;2.50;1.50;;;19.10;99.90;;;;;;6257466;22;20024;-89
2023/08/30 11:48:45;;;;;;;3.47;2.08;;;18.60;99.90;;;;;;6256793;22;20300;-88
2023/08/30 11:51:33;;;;;;;3.80;2.05;;;17.90;99.90;;;;;;6278149;22;20023;-88
2023/08/30 11:54:21;;;;;;;5.97;2.38;;;17.30;99.90;;;;;;6276144;22;20042;-88
2023/08/30 11:57:08;;;;;;;5.57;2.47;;;16.50;1.00;;;;;;6276529;22;20299;-90
2023/08/30 12:00:06;;;;;;;4.18;2.90;;;15.70;99.90;;;;;;6257014;22;20024;-91
2023/08/30 12:02:53;;;;;;;3.60;3.13;;;15.00;1.00;;;;;;6279375;22;20027;-89
2023/08/30 12:05:48;;;;;;;4.70;4.20;;;14.70;1.00;;;;;;6279506;22;20263;-90
2023/08/30 12:08:36;;;;;;;5.32;4.82;;;14.50;1.00;;;;;;6257082;22;20033;-90
2023/08/30 12:11:23;;;;;;;7.50;5.80;;;14.50;99.90;;;;;;6259217;22;20023;-90
2023/08/30 12:14:12;;;;;;;8.27;7.20;;;14.50;99.90;;;;;;6278129;22;20446;-91
2023/08/30 12:17:00;;;;;;;7.18;6.28;;;14.60;99.90;;;;;;6279537;22;20023;-91
2023/08/30 12:19:56;;;;;;;6.57;5.85;;;14.70;99.90;;;;;;6256226;22;20112;-91
2023/08/30 12:22:43;;;;;;;7.15;6.45;;;15.00;99.90;;;;;;6277625;22;20024;-90
2023/08/30 12:25:32;;;;;;;7.22;6.18;;;15.20;99.90;;;;;;6258166;22;20031;-93
2023/08/30 12:28:21;;;;;;;8.05;6.38;;;15.20;99.90;;;;;;6254907;22;20403;-90
2023/08/30 12:31:09;;;;;;;4.90;3.85;;;15.30;99.90;;;;;;6255591;22;20030;-90
2023/08/30 12:33:56;;;;;;;5.57;4.75;;;15.30;99.90;;;;;;6255098;22;20448;-90
2023/08/30 12:36:44;;;;;;;5.43;4.60;;;15.20;99.90;;;;;;6279614;22;20023;-89
2023/08/30 12:39:31;;;;;;;6.30;5.25;;;15.20;99.90;;;;;;6277559;22;20284;-85
2023/08/30 12:42:19;;;;;;;5.85;5.35;;;15.10;99.90;;;;;;6277981;22;20034;-83
2023/08/30 12:45:07;;;;;;;6.65;5.93;;;15.10;99.90;;;;;;6253652;22;20024;-85
2023/08/30 12:47:58;;;;;;;5.93;5.32;;;15.00;99.90;;;;;;6273530;22;20415;-85
2023/08/30 12:50:50;;;;;;;6.45;5.70;;;15.00;99.90;;;;;;6275872;22;20020;-83
2023/08/30 12:53:37;;;;;;;5.75;5.13;;;15.10;99.90;;;;;;6278939;22;20027;-84
2023/08/30 12:56:27;;;;;;;4.38;3.97;;;15.10;99.90;;;;;;6275361;22;20028;-84
2023/08/30 12:59:14;;;;;;;6.78;4.60;;;15.10;99.90;;;;;;6254394;22;20023;-84
2023/08/30 13:02:01;;;;;;;5.38;4.88;;;15.20;63.20;;;;;;6253609;22;20086;-86
2023/08/30 13:04:49;;;;;;;8.55;5.50;;;15.20;99.90;;;;;;6253440;22;20051;-83
2023/08/30 13:07:39;;;;;;;6.65;5.20;;;15.10;99.90;;;;;;6251771;22;20021;-83
2023/08/30 13:10:29;;;;;;;5.70;5.18;;;15.40;99.90;;;;;;6253819;22;20070;-82
2023/08/30 13:13:17;;;;;;;5.22;4.72;;;15.80;99.90;;;;;;6253782;22;20024;-84
2023/08/30 13:16:06;;;;;;;4.20;3.88;;;16.10;99.90;;;;;;6277517;22;20089;-84
2023/08/30 13:18:53;;;;;;;4.63;3.58;;;16.50;1.00;;;;;;6276581;22;20035;-83
2023/08/30 13:21:42;;;;;;;5.30;3.33;;;16.80;1.00;;;;;;6276191;22;20028;-85
2023/08/30 13:24:32;;;;;;;4.25;3.40;;;17.60;1.00;;;;;;6276382;22;20348;-83
2023/08/30 13:27:20;;;;;;;4.82;3.50;;;18.80;99.90;;;;;;6256379;22;20023;-85
2023/08/30 13:30:07;;;;;;;3.97;2.67;;;20.20;99.90;;;;;;6256453;22;20027;-85
2023/08/30 13:32:54;;;;;;;3.90;2.65;;;21.50;99.90;;;;;;6256628;22;20034;-85
2023/08/30 13:35:42;;;;;;;3.42;2.40;;;22.90;99.90;;;;;;6254193;22;20462;-84
2023/08/30 13:38:29;;;;;;;2.95;2.28;;;23.60;1.00;;;;;;6284781;22;20038;-85
2023/08/30 13:41:16;;;;;;;1.95;1.85;;;24.10;1.00;;;;;;6254015;22;20024;-85
2023/08/30 13:44:08;;;;;;;4.22;1.83;;;24.30;99.90;;;;;;6255547;22;20027;-86
2023/08/30 13:46:57;;;;;;;5.35;1.80;;;23.40;99.90;;;;;;6256909;22;20410;-84
2023/08/30 13:49:46;;;;;;;2.42;1.70;;;22.80;99.90;;;;;;6275055;22;20030;-83
2023/08/30 13:52:34;;;;;;;1.52;1.42;;;23.00;99.90;;;;;;6256565;22;20051;-86
2023/08/30 13:55:24;;;;;;;1.70;1.60;;;24.00;99.90;;;;;;6254123;22;20020;-85
2023/08/30 13:58:14;;;;;;;3.67;1.75;;;24.80;99.90;;;;;;6277687;22;20086;-85
2023/08/30 14:01:01;;;;;;;3.50;1.40;;;25.20;99.90;;;;;;6277992;22;20149;-84
2023/08/30 14:03:48;;;;;;;2.00;1.50;;;25.90;99.90;;;;;;6254793;22;20024;-85
2023/08/30 14:06:40;;;;;;;1.80;1.23;;;26.40;99.90;;;;;;6255508;22;20030;-83
2023/08/30 14:09:28;;;;;;;1.20;1.10;;;26.30;99.90;;;;;;6277745;22;20069;-84
2023/08/30 14:12:15;;;;;;;5.65;3.92;;;25.50;99.90;;;;;;6255052;22;20024;-84
2023/08/30 14:15:03;;;;;;;2.42;1.50;;;24.50;99.90;;;;;;6279062;22;20061;-85
2023/08/30 14:17:50;;;;;;;2.60;1.80;;;23.30;99.90;;;;;;6254290;22;20027;-84
2023/08/30 14:20:39;;;;;;;1.52;1.42;;;23.10;99.90;;;;;;6255184;22;20034;-84
2023/08/30 14:23:27;;;;;;;2.90;1.20;;;23.90;99.90;;;;;;6277022;22;20020;-85
2023/08/30 14:26:15;;;;;;;1.63;1.40;;;23.90;99.90;;;;;;6254845;22;20031;-85
2023/08/30 14:29:02;;;;;;;1.65;1.55;;;23.80;99.90;;;;;;6251798;22;20041;-85
2023/08/30 14:31:55;;;;;;;4.30;1.90;;;22.80;99.90;;;;;;6253452;22;20393;-84
2023/08/30 14:34:43;;;;;;;2.47;1.60;;;22.00;99.90;;;;;;6256154;22;20130;-85
2023/08/30 14:37:30;;;;;;;1.52;1.35;;;21.30;99.90;;;;;;6255229;22;20103;-86
2023/08/30 14:40:18;;;;;;;1.80;1.70;;;20.70;99.90;;;;;;6274441;22;20121;-86
2023/08/30 14:43:06;;;;;;;3.90;1.70;;;20.40;99.90;;;;;;6277030;22;20047;-85
2023/08/30 14:46:04;;;;;;;3.15;1.73;;;19.80;99.90;;;;;;6279302;22;20020;-86
2023/08/30 14:48:59;;;;;;;3.25;2.10;;;19.30;1.00;;;;;;6275711;22;20024;-85